Norddeutschland Verkehrsflughäfen

2020/03/28 12:20 EDDH 281220Z 32010KT 290V350 CAVOK 12/M03 Q1022 NOSIG
2008/11/04 23:50 TAF AMD EDDH 042350Z 050007 CNL= TAF AMD EDDV 042350Z 050007 CNL
2020/03/28 12:27 TAF EDDH 281100Z 2812/2918 31009KT 9999 FEW035 BECMG 2901/2904 01015G25KT BKN013 TEMPO 2902/2908 2500 SNRA BKN006 TEMPO 2906/2912 02020G35KT BECMG 2916/2918 01012KT

2020/03/28 12:20 EDDV 281220Z 31011KT 270V360 9999 FEW048 13/02 Q1021 NOSIG
2008/11/04 23:50 TAF AMD TAF AMD EDDV 042350Z 050007 CNL
2020/03/28 12:27 TAF EDDV 281100Z 2812/2912 01007KT 9999 FEW035 BECMG 2812/2814 31009KT PROB30 TEMPO 2900/2907 BKN009 BECMG 2903/2906 36015G25KT BKN013 TEMPO 2907/2910 3500 -RASN BKN008

2020/03/28 12:20 EDDW 281220Z 31014KT CAVOK 11/03 Q1023 BECMG 34015G25KT
2008/11/04 23:50 TAF AMD EDDW 042350Z 050007 CNL
2020/03/28 12:27 TAF EDDW 281100Z 2812/2912 35011KT 9999 FEW035 TEMPO 2812/2816 35015G25KT BECMG 2901/2904 01015G25KT TEMPO 2903/2909 3500 -RASN BKN011 PROB30 TEMPO 2905/2908 BKN008

2020/03/28 12:20 EDHL 281220Z VRB04KT CAVOK 12/M03 Q1022
2020/03/28 12:27 TAF TAF EDHL 281100Z 2812/2821 34006KT CAVOK
2010/02/22 14:20 METAR EDHL 221420Z 15004KT 110V180 9999 FEW039 SCT120 05/02 Q0990 RMK X

2020/03/28 12:20 EDHK 281220Z 32007KT 290V360 9999 FEW044 09/03 Q1022
2020/03/28 12:27 TAF EDHK 281100Z 2812/2818 35008KT 9999 FEW035
2013/08/11 06:39 TAF EDHK 110633Z 1106/1118 24005KT 9999 SCT030 BECMG 1106/1109 25010KT TEMPO 1106/1118 27015G25KT 4500 SHRA BKN012CB

2020/03/28 12:20 EDVE 281220Z 33008KT 280V020 CAVOK 13/M02 Q1021
2020/03/28 12:27 TAF EDVE 281100Z 2812/2815 34008KT CAVOK
2009/02/18 05:53 TAF TAF EDVE 180553Z 1806/1819 30003KT 9999 FEW025